Time;durP1;ratioP1;P1;durP2;ratioP2;P2;SDS_P1;SDS_P2;PMS_P1;PMS_P2;Temp;Humidity;BMP_temperature;BMP_pressure;BME280_temperature;BME280_humidity;BME280_pressure;Samples;Min_cycle;Max_cycle;Signal;HPM_P1;HPM_P2
2023/03/31 00:01:44;;;;;;;5.97;1.93;;;11.10;99.90;;;;;;4934526;29;20869;-88
2023/03/31 00:04:15;;;;;;;5.50;1.53;;;11.20;99.90;;;;;;4935724;29;20245;-88
2023/03/31 00:06:52;;;;;;;6.83;1.70;;;11.20;99.90;;;;;;4933221;29;20675;-88
2023/03/31 00:09:28;;;;;;;5.93;1.70;;;11.00;99.90;;;;;;4930975;29;20239;-89
2023/03/31 00:12:00;;;;;;;3.80;1.93;;;10.90;99.90;;;;;;4936275;29;20269;-88
2023/03/31 00:14:31;;;;;;;8.43;2.23;;;10.80;99.90;;;;;;4939543;29;20220;-89
2023/03/31 00:17:03;;;;;;;4.00;1.70;;;10.70;99.90;;;;;;4937447;29;20216;-89
2023/03/31 00:19:34;;;;;;;6.10;2.17;;;10.80;99.90;;;;;;4932256;29;20679;-89
2023/03/31 00:22:09;;;;;;;5.70;1.90;;;10.80;99.90;;;;;;4934382;29;20208;-89
2023/03/31 00:24:40;;;;;;;7.00;1.97;;;10.80;99.90;;;;;;4939626;29;20666;-91
2023/03/31 00:27:12;;;;;;;5.20;1.93;;;10.80;99.90;;;;;;4937175;28;20212;-89
2023/03/31 00:29:44;;;;;;;5.27;2.13;;;10.70;99.90;;;;;;4936956;29;20247;-90
2023/03/31 00:32:15;;;;;;;7.80;2.17;;;10.70;99.90;;;;;;4941801;29;20228;-89
2023/03/31 00:34:47;;;;;;;10.63;2.20;;;10.70;99.90;;;;;;4938687;29;20208;-88
2023/03/31 00:37:21;;;;;;;7.97;2.23;;;10.80;99.90;;;;;;4935572;29;20670;-88
2023/03/31 00:39:52;;;;;;;9.13;2.30;;;10.80;99.90;;;;;;4936708;29;20694;-89
2023/03/31 00:42:23;;;;;;;7.03;2.37;;;10.70;99.90;;;;;;4938301;29;20236;-88
2023/03/31 00:45:28;;;;;;;6.73;1.97;;;10.70;99.90;;;;;;4932140;29;20774;-88
2023/03/31 00:48:08;;;;;;;11.33;2.27;;;10.60;99.90;;;;;;4900554;29;20209;-89
2023/03/31 00:50:50;;;;;;;8.33;2.10;;;10.80;99.90;;;;;;4942908;28;20208;-88
2023/03/31 00:53:26;;;;;;;7.43;2.00;;;10.80;99.90;;;;;;4952069;29;20212;-89
2023/03/31 00:56:07;;;;;;;7.83;2.13;;;10.70;99.90;;;;;;4957220;29;20208;-88
2023/03/31 00:58:44;;;;;;;9.17;2.03;;;10.50;99.90;;;;;;4946386;29;20212;-88
2023/03/31 01:01:19;;;;;;;6.13;2.10;;;10.40;99.90;;;;;;4955460;29;20204;-87
2023/03/31 01:03:51;;;;;;;6.63;2.13;;;10.30;99.90;;;;;;4956272;29;20219;-87
2023/03/31 01:06:24;;;;;;;7.33;1.80;;;10.30;99.90;;;;;;4969158;29;20212;-88
2023/03/31 01:08:57;;;;;;;5.83;2.00;;;10.30;99.90;;;;;;4956395;28;20245;-89
2023/03/31 01:11:31;;;;;;;10.00;2.30;;;10.30;99.90;;;;;;4929660;29;20633;-89
2023/03/31 01:14:03;;;;;;;5.27;2.07;;;10.20;99.90;;;;;;4933204;29;20205;-87
2023/03/31 01:16:34;;;;;;;16.63;3.00;;;10.30;99.90;;;;;;4933724;29;20298;-88
2023/03/31 01:19:07;;;;;;;10.87;1.90;;;10.30;99.90;;;;;;4937009;29;20223;-89
2023/03/31 01:22:07;;;;;;;7.97;2.03;;;10.20;99.90;;;;;;4937043;29;20208;-88
2023/03/31 01:25:22;;;;;;;5.97;1.53;;;10.20;99.90;;;;;;4935078;28;20238;-88
2023/03/31 01:28:12;;;;;;;8.77;2.10;;;10.10;99.90;;;;;;4933136;29;20231;-90
2023/03/31 01:31:18;;;;;;;7.33;1.70;;;10.10;99.90;;;;;;4933931;29;20272;-89
2023/03/31 01:34:29;;;;;;;6.47;1.87;;;10.10;99.90;;;;;;4929022;29;20231;-88
2023/03/31 01:37:30;;;;;;;3.83;1.67;;;10.10;99.90;;;;;;4930738;29;21737;-89
2023/03/31 01:40:25;;;;;;;3.70;1.40;;;10.00;99.90;;;;;;4940486;29;20690;-90
2023/03/31 01:43:05;;;;;;;4.67;1.90;;;9.90;99.90;;;;;;4935380;29;20584;-89
2023/03/31 01:45:46;;;;;;;4.40;1.87;;;9.90;99.90;;;;;;4936259;29;20705;-90
2023/03/31 01:48:22;;;;;;;6.00;1.80;;;9.90;99.90;;;;;;4941139;29;20227;-89
2023/03/31 01:50:57;;;;;;;5.93;1.97;;;9.80;99.90;;;;;;4935298;29;20235;-90
2023/03/31 01:53:35;;;;;;;6.30;1.50;;;9.70;99.90;;;;;;4935135;29;20634;-90
2023/03/31 01:56:13;;;;;;;6.77;1.83;;;9.60;99.90;;;;;;4935457;29;20212;-89
2023/03/31 01:58:51;;;;;;;4.90;1.73;;;9.60;99.90;;;;;;4926528;29;20667;-89
2023/03/31 02:01:26;;;;;;;8.60;1.80;;;9.50;99.90;;;;;;4936160;29;20204;-89
2023/03/31 02:04:01;;;;;;;8.50;1.70;;;9.40;99.90;;;;;;4939228;29;20212;-89
2023/03/31 02:06:40;;;;;;;3.97;1.60;;;9.40;99.90;;;;;;4939020;29;20228;-88
2023/03/31 02:09:15;;;;;;;6.27;1.80;;;9.40;99.90;;;;;;4936809;29;20240;-88
2023/03/31 02:11:52;;;;;;;8.43;1.77;;;9.30;99.90;;;;;;4943005;29;20268;-89
2023/03/31 02:14:26;;;;;;;7.57;1.73;;;9.20;99.90;;;;;;4929557;29;20286;-89
2023/03/31 02:17:01;;;;;;;8.97;1.70;;;9.20;99.90;;;;;;4934230;29;20215;-89
2023/03/31 02:19:35;;;;;;;3.63;1.40;;;9.20;99.90;;;;;;4930481;29;20292;-88
2023/03/31 02:22:09;;;;;;;9.10;1.67;;;9.10;99.90;;;;;;4932610;29;20228;-88
2023/03/31 02:24:42;;;;;;;6.83;1.50;;;9.10;99.90;;;;;;4931937;29;20219;-88
2023/03/31 02:27:20;;;;;;;7.53;1.60;;;9.10;99.90;;;;;;4937932;29;20226;-88
2023/03/31 02:29:52;;;;;;;5.80;2.30;;;9.10;99.90;;;;;;4945782;29;20212;-89
2023/03/31 02:32:26;;;;;;;6.40;2.40;;;9.00;99.90;;;;;;4939883;29;20290;-89
2023/03/31 02:34:58;;;;;;;6.07;1.83;;;9.00;99.90;;;;;;4939152;29;20208;-90
2023/03/31 02:37:30;;;;;;;5.47;1.83;;;9.00;99.90;;;;;;4930127;29;20201;-90
2023/03/31 02:40:09;;;;;;;4.30;1.77;;;9.00;99.90;;;;;;4933116;29;20700;-90
2023/03/31 02:42:44;;;;;;;9.93;2.17;;;9.00;99.90;;;;;;4935260;29;20226;-89
2023/03/31 02:45:39;;;;;;;8.00;2.57;;;8.90;99.90;;;;;;4940642;29;20295;-93
2023/03/31 02:48:15;;;;;;;9.40;2.63;;;8.90;99.90;;;;;;4941040;29;20248;-92
2023/03/31 02:51:03;;;;;;;7.20;2.03;;;8.90;99.90;;;;;;4940676;29;20294;-93
2023/03/31 02:53:42;;;;;;;9.00;2.17;;;8.90;99.90;;;;;;4940511;29;20214;-93
2023/03/31 02:56:26;;;;;;;5.83;2.00;;;8.80;99.90;;;;;;4940700;29;20244;-94
2023/03/31 03:02:08;;;;;;;6.87;2.10;;;8.70;99.90;;;;;;5114357;27;20595;-91
2023/03/31 03:05:06;;;;;;;8.30;2.23;;;8.70;99.90;;;;;;5085366;28;20288;-91
2023/03/31 03:07:47;;;;;;;6.43;2.20;;;8.70;99.90;;;;;;5100438;28;20199;-92
2023/03/31 03:10:26;;;;;;;5.60;1.97;;;8.60;99.90;;;;;;5117763;28;20237;-91
2023/03/31 03:13:05;;;;;;;6.77;2.00;;;8.60;99.90;;;;;;5106196;28;20194;-91
2023/03/31 03:15:42;;;;;;;9.43;2.40;;;8.60;99.90;;;;;;5093578;28;20202;-91
2023/03/31 03:18:17;;;;;;;5.17;1.77;;;8.50;99.90;;;;;;5100715;28;20198;-92
2023/03/31 03:20:49;;;;;;;7.40;1.80;;;8.40;99.90;;;;;;5088714;28;20266;-91
2023/03/31 03:23:21;;;;;;;7.50;2.20;;;8.40;99.90;;;;;;5092651;28;20285;-91
2023/03/31 03:25:52;;;;;;;4.50;1.63;;;8.40;99.90;;;;;;5072355;28;20639;-90
2023/03/31 03:28:24;;;;;;;6.17;1.87;;;8.30;99.90;;;;;;5070041;28;20568;-91
2023/03/31 03:30:55;;;;;;;7.90;1.80;;;8.30;99.90;;;;;;5071829;28;20314;-90
2023/03/31 03:33:28;;;;;;;8.67;1.83;;;8.30;99.90;;;;;;5086056;28;20204;-91
2023/03/31 03:36:00;;;;;;;7.83;1.77;;;8.30;99.90;;;;;;5090965;28;20215;-91
2023/03/31 03:38:31;;;;;;;5.53;1.63;;;8.30;99.90;;;;;;5084775;28;20200;-90
2023/03/31 03:41:02;;;;;;;6.30;1.83;;;8.20;99.90;;;;;;5091402;28;20217;-92
2023/03/31 03:43:33;;;;;;;6.30;1.83;;;8.20;99.90;;;;;;5075175;28;20212;-90
2023/03/31 03:46:05;;;;;;;7.33;2.47;;;8.20;99.90;;;;;;5082256;28;20204;-93
2023/03/31 03:48:38;;;;;;;5.27;1.60;;;8.10;99.90;;;;;;5089796;28;21578;-91
2023/03/31 03:51:10;;;;;;;3.83;1.37;;;8.10;99.90;;;;;;5089706;28;20227;-92
2023/03/31 03:53:41;;;;;;;6.43;1.80;;;8.10;99.90;;;;;;5091370;28;20209;-92
2023/03/31 03:56:12;;;;;;;4.73;1.63;;;8.10;99.90;;;;;;5088825;28;20248;-92
2023/03/31 03:58:43;;;;;;;5.63;1.73;;;8.10;99.90;;;;;;5090230;28;20666;-92
2023/03/31 04:01:15;;;;;;;6.80;1.73;;;8.10;99.90;;;;;;5089715;28;20211;-92
2023/03/31 04:03:49;;;;;;;7.63;2.13;;;8.10;99.90;;;;;;5090470;28;20237;-91
2023/03/31 04:06:20;;;;;;;6.53;1.93;;;8.00;99.90;;;;;;5088376;28;20286;-92
2023/03/31 04:08:51;;;;;;;8.60;1.90;;;7.90;99.90;;;;;;5073964;28;20298;-92
2023/03/31 04:11:23;;;;;;;4.53;1.80;;;7.80;99.90;;;;;;5089537;28;20254;-92
2023/03/31 04:13:54;;;;;;;7.43;2.07;;;7.80;99.90;;;;;;5056938;28;20239;-92
2023/03/31 04:16:26;;;;;;;9.43;2.30;;;7.70;99.90;;;;;;5069254;28;20198;-90
2023/03/31 04:19:02;;;;;;;5.77;1.87;;;7.70;99.90;;;;;;5060842;28;20200;-89
2023/03/31 04:21:35;;;;;;;7.90;2.33;;;7.70;99.90;;;;;;5076930;28;20237;-90
2023/03/31 04:24:07;;;;;;;5.93;2.73;;;7.60;99.90;;;;;;5076361;28;20204;-91
2023/03/31 04:26:43;;;;;;;4.43;1.70;;;7.50;99.90;;;;;;5067558;28;20243;-90
2023/03/31 04:29:18;;;;;;;7.17;2.43;;;7.60;99.90;;;;;;5091374;28;20659;-90
2023/03/31 04:31:51;;;;;;;7.53;1.83;;;7.50;99.90;;;;;;5077417;28;20226;-90
2023/03/31 04:34:25;;;;;;;8.83;2.13;;;7.50;99.90;;;;;;5075165;28;21700;-90
2023/03/31 04:37:01;;;;;;;7.57;1.80;;;7.50;99.90;;;;;;5076308;28;20666;-90
2023/03/31 04:39:33;;;;;;;6.90;2.13;;;7.50;99.90;;;;;;5071679;28;20207;-90
2023/03/31 04:42:05;;;;;;;8.57;2.07;;;7.50;99.90;;;;;;5061285;28;20203;-91
2023/03/31 04:44:36;;;;;;;9.07;2.37;;;7.50;99.90;;;;;;5076737;28;20235;-90
2023/03/31 04:47:08;;;;;;;8.23;2.00;;;7.50;99.90;;;;;;5089058;28;20293;-91
2023/03/31 04:49:41;;;;;;;5.43;1.80;;;7.40;99.90;;;;;;5096425;28;20298;-91
2023/03/31 04:52:13;;;;;;;6.20;2.10;;;7.50;99.90;;;;;;5088646;28;20315;-93
2023/03/31 04:54:44;;;;;;;7.67;2.50;;;7.40;99.90;;;;;;5059684;28;20212;-91
2023/03/31 04:57:16;;;;;;;9.00;2.20;;;7.40;99.90;;;;;;5080468;28;20214;-94
2023/03/31 04:59:48;;;;;;;5.73;1.97;;;7.40;99.90;;;;;;5057362;28;20216;-91
2023/03/31 05:02:22;;;;;;;9.10;2.40;;;7.40;99.90;;;;;;5057571;28;20204;-91
2023/03/31 05:04:56;;;;;;;9.17;2.40;;;7.40;99.90;;;;;;5061319;28;20203;-90
2023/03/31 05:07:27;;;;;;;8.50;2.20;;;7.40;99.90;;;;;;5062848;28;20200;-91
2023/03/31 05:10:00;;;;;;;9.43;2.37;;;7.40;99.90;;;;;;5078729;28;20210;-92
2023/03/31 05:12:34;;;;;;;8.60;2.47;;;7.30;99.90;;;;;;5066325;28;20280;-92
2023/03/31 05:15:07;;;;;;;8.23;2.10;;;7.30;99.90;;;;;;5088696;28;20398;-90
2023/03/31 05:17:38;;;;;;;6.97;2.00;;;7.30;99.90;;;;;;5095097;28;20184;-92
2023/03/31 05:20:13;;;;;;;8.87;2.20;;;7.20;99.90;;;;;;5093661;28;20198;-90
2023/03/31 05:22:44;;;;;;;7.33;2.20;;;7.20;99.90;;;;;;5079663;28;20287;-90
2023/03/31 05:25:17;;;;;;;7.77;2.20;;;7.20;99.90;;;;;;5074195;28;20563;-91
2023/03/31 05:27:49;;;;;;;5.33;2.07;;;7.20;99.90;;;;;;5075294;28;20287;-91
2023/03/31 05:30:21;;;;;;;7.53;2.30;;;7.20;99.90;;;;;;5075510;28;20196;-90
2023/03/31 05:32:52;;;;;;;10.60;1.90;;;7.20;99.90;;;;;;5073448;28;20252;-91
2023/03/31 05:35:26;;;;;;;8.00;2.67;;;7.30;99.90;;;;;;5082649;28;20215;-90
2023/03/31 05:37:58;;;;;;;8.20;2.50;;;7.20;99.90;;;;;;5095669;28;20583;-90
2023/03/31 05:40:29;;;;;;;8.40;2.10;;;7.30;99.90;;;;;;5086916;28;20209;-91
2023/03/31 05:43:00;;;;;;;6.47;1.93;;;7.20;99.90;;;;;;5072375;28;20674;-91
2023/03/31 05:45:32;;;;;;;7.27;1.83;;;7.20;99.90;;;;;;5080175;28;20230;-91
2023/03/31 05:48:03;;;;;;;8.03;1.83;;;7.10;99.90;;;;;;5072123;28;20203;-90
2023/03/31 05:50:37;;;;;;;8.20;2.10;;;7.10;99.90;;;;;;5070274;28;20245;-92
2023/03/31 05:53:08;;;;;;;10.33;2.50;;;7.10;99.90;;;;;;5075849;28;20783;-91
2023/03/31 05:55:40;;;;;;;11.57;3.17;;;7.20;99.90;;;;;;5069158;28;20212;-93
2023/03/31 05:58:11;;;;;;;10.77;2.70;;;7.10;99.90;;;;;;5065652;28;20206;-92
2023/03/31 06:00:43;;;;;;;7.53;2.13;;;7.10;99.90;;;;;;5063474;28;20271;-90
2023/03/31 06:03:15;;;;;;;7.53;2.10;;;7.10;99.90;;;;;;5066825;28;20295;-91
2023/03/31 06:05:52;;;;;;;9.53;2.60;;;7.10;99.90;;;;;;5062190;28;20200;-91
2023/03/31 06:08:25;;;;;;;11.53;2.10;;;7.10;99.90;;;;;;5075449;28;20237;-91
2023/03/31 06:11:00;;;;;;;6.20;1.90;;;7.00;99.90;;;;;;5078390;28;20207;-92
2023/03/31 06:13:32;;;;;;;7.60;2.10;;;7.00;99.90;;;;;;5086217;28;20217;-92
2023/03/31 06:16:03;;;;;;;7.00;2.17;;;7.00;99.90;;;;;;5075579;28;20265;-91
2023/03/31 06:18:36;;;;;;;8.20;2.07;;;7.10;99.90;;;;;;5075412;28;20573;-92
2023/03/31 06:21:12;;;;;;;10.00;2.33;;;7.00;99.90;;;;;;5068700;28;20264;-92
2023/03/31 06:23:45;;;;;;;12.27;2.30;;;7.00;99.90;;;;;;5073966;28;20262;-91
2023/03/31 06:26:18;;;;;;;9.47;2.23;;;7.00;99.90;;;;;;5071091;28;20212;-89
2023/03/31 06:28:49;;;;;;;8.63;2.10;;;7.00;99.90;;;;;;5084208;28;20188;-90
2023/03/31 06:31:23;;;;;;;11.90;2.60;;;7.10;99.90;;;;;;5092701;28;20233;-90
2023/03/31 06:33:55;;;;;;;9.83;2.43;;;7.10;99.90;;;;;;5076165;28;20362;-90
2023/03/31 06:36:28;;;;;;;11.00;2.27;;;7.00;99.90;;;;;;5085851;28;20208;-90
2023/03/31 06:38:59;;;;;;;9.70;2.40;;;7.00;99.90;;;;;;5074447;28;20231;-91
2023/03/31 06:41:31;;;;;;;10.93;2.67;;;7.00;99.90;;;;;;5088962;28;20200;-90
2023/03/31 06:44:03;;;;;;;7.67;2.23;;;7.00;99.90;;;;;;5084761;28;20272;-90
2023/03/31 06:46:34;;;;;;;7.90;2.00;;;6.90;99.90;;;;;;5075094;28;20235;-90
2023/03/31 06:49:05;;;;;;;8.40;2.73;;;6.90;99.90;;;;;;5073663;28;20199;-91
2023/03/31 06:51:38;;;;;;;8.30;2.00;;;6.90;99.90;;;;;;5082319;28;20234;-92
2023/03/31 06:54:10;;;;;;;9.70;2.40;;;6.80;99.90;;;;;;5075377;28;20195;-92
2023/03/31 06:56:41;;;;;;;6.60;2.10;;;6.80;99.90;;;;;;5075965;28;20207;-93
2023/03/31 06:59:15;;;;;;;6.73;1.93;;;6.80;99.90;;;;;;5066754;28;20297;-91
2023/03/31 07:01:47;;;;;;;5.90;1.87;;;6.70;99.90;;;;;;5072750;28;20225;-94
2023/03/31 07:04:19;;;;;;;5.77;2.43;;;6.70;99.90;;;;;;5079718;28;20269;-92
2023/03/31 07:06:51;;;;;;;11.03;2.23;;;6.70;99.90;;;;;;5058556;28;20287;-92
2023/03/31 07:09:23;;;;;;;6.10;2.20;;;6.70;99.90;;;;;;5070391;28;20241;-90
2023/03/31 07:11:55;;;;;;;6.10;1.97;;;6.70;99.90;;;;;;5074748;28;20281;-92
2023/03/31 07:14:27;;;;;;;9.43;2.30;;;6.70;99.90;;;;;;5077274;28;20698;-91
2023/03/31 07:16:58;;;;;;;8.77;2.20;;;6.70;99.90;;;;;;5075143;28;20258;-93
2023/03/31 07:19:29;;;;;;;9.33;2.57;;;6.70;99.90;;;;;;5080097;28;20206;-92
2023/03/31 07:22:03;;;;;;;7.93;2.43;;;6.60;99.90;;;;;;5091841;28;20251;-93
2023/03/31 07:24:34;;;;;;;5.20;2.10;;;6.60;99.90;;;;;;5089003;28;20224;-93
2023/03/31 07:27:05;;;;;;;10.73;2.37;;;6.60;99.90;;;;;;5075455;28;20208;-90
2023/03/31 07:29:37;;;;;;;6.37;2.30;;;6.60;99.90;;;;;;5074210;28;20203;-91
2023/03/31 07:32:09;;;;;;;8.07;1.90;;;6.60;99.90;;;;;;5074743;28;20231;-90
2023/03/31 07:34:41;;;;;;;11.33;2.20;;;6.60;99.90;;;;;;5074699;28;20247;-91
2023/03/31 07:37:17;;;;;;;6.97;2.80;;;6.70;99.90;;;;;;5073495;28;20203;-94
2023/03/31 07:39:48;;;;;;;11.77;2.17;;;6.60;99.90;;;;;;5075011;28;20258;-91
2023/03/31 07:42:20;;;;;;;7.97;2.30;;;6.60;99.90;;;;;;5073348;28;20204;-90
2023/03/31 07:44:51;;;;;;;8.33;1.90;;;6.60;99.90;;;;;;5072990;28;20203;-91
2023/03/31 07:47:23;;;;;;;8.30;2.43;;;6.60;99.90;;;;;;5075049;28;20211;-92
2023/03/31 07:49:55;;;;;;;6.67;2.10;;;6.60;99.90;;;;;;5077974;28;20239;-91
2023/03/31 07:52:29;;;;;;;8.80;1.80;;;6.60;99.90;;;;;;5081705;28;20255;-90
2023/03/31 07:55:01;;;;;;;9.30;1.80;;;6.60;99.90;;;;;;5076933;28;20216;-91
2023/03/31 07:57:32;;;;;;;9.87;2.40;;;6.60;99.90;;;;;;5069576;28;20238;-90
2023/03/31 08:00:07;;;;;;;7.27;2.20;;;6.60;99.90;;;;;;5056296;28;20690;-91
2023/03/31 08:02:38;;;;;;;6.30;1.67;;;6.60;99.90;;;;;;5077843;28;20622;-93
2023/03/31 08:05:10;;;;;;;10.20;2.17;;;6.60;99.90;;;;;;5062190;28;20289;-93
2023/03/31 08:07:45;;;;;;;8.97;2.10;;;6.60;99.90;;;;;;5076863;28;20235;-92
2023/03/31 08:10:19;;;;;;;8.20;1.63;;;6.60;99.90;;;;;;5078145;28;20210;-92
2023/03/31 08:12:51;;;;;;;8.27;1.93;;;6.60;99.90;;;;;;5067333;28;20306;-91
2023/03/31 08:15:23;;;;;;;9.00;1.97;;;6.50;99.90;;;;;;5057345;28;20313;-92
2023/03/31 08:17:55;;;;;;;5.83;1.80;;;6.60;99.90;;;;;;5069634;28;20286;-93
2023/03/31 08:20:27;;;;;;;4.60;1.97;;;6.50;99.90;;;;;;5077033;28;20196;-91
2023/03/31 08:23:00;;;;;;;6.50;2.00;;;6.60;99.90;;;;;;5076517;28;20587;-91
2023/03/31 08:25:32;;;;;;;8.00;2.00;;;6.60;99.90;;;;;;5083737;28;20212;-92
2023/03/31 08:28:03;;;;;;;8.77;2.10;;;6.60;99.90;;;;;;5083748;28;20210;-91
2023/03/31 08:30:35;;;;;;;10.43;2.37;;;6.60;99.90;;;;;;5083306;28;20206;-92
2023/03/31 08:33:06;;;;;;;5.57;2.30;;;6.60;99.90;;;;;;5079593;28;20634;-92
2023/03/31 08:35:38;;;;;;;9.40;1.67;;;6.50;99.90;;;;;;5074397;28;20242;-90
2023/03/31 08:38:12;;;;;;;8.30;2.20;;;6.50;99.90;;;;;;5075794;28;20568;-90
2023/03/31 08:40:43;;;;;;;5.40;2.40;;;6.50;99.90;;;;;;5076765;28;20199;-91
2023/03/31 08:43:22;;;;;;;10.37;2.37;;;6.50;99.90;;;;;;5077469;28;20286;-90
2023/03/31 08:45:55;;;;;;;10.67;2.50;;;6.50;99.90;;;;;;5096718;28;20265;-90
2023/03/31 08:48:33;;;;;;;9.80;1.80;;;6.50;99.90;;;;;;5097318;28;20214;-92
2023/03/31 08:51:09;;;;;;;5.93;2.00;;;6.50;99.90;;;;;;5091280;28;20282;-90
2023/03/31 08:53:48;;;;;;;7.87;1.97;;;6.50;99.90;;;;;;5068790;28;20243;-90
2023/03/31 08:56:23;;;;;;;6.10;2.00;;;6.50;99.90;;;;;;5063876;28;20286;-91
2023/03/31 08:59:00;;;;;;;9.83;2.27;;;6.50;99.90;;;;;;5075875;28;20271;-90
2023/03/31 09:01:43;;;;;;;9.00;3.20;;;6.50;99.90;;;;;;5075660;28;20257;-91
2023/03/31 09:04:51;;;;;;;8.37;2.53;;;6.50;99.90;;;;;;5074616;28;20276;-92
2023/03/31 09:07:37;;;;;;;10.40;2.20;;;6.50;99.90;;;;;;5076184;28;20668;-91
2023/03/31 09:10:28;;;;;;;4.90;2.07;;;6.60;99.90;;;;;;5076308;28;20206;-91
2023/03/31 09:13:05;;;;;;;7.10;1.90;;;6.60;99.90;;;;;;5076776;28;20249;-91
2023/03/31 09:15:44;;;;;;;9.10;2.00;;;6.50;99.90;;;;;;5076633;28;20666;-90
2023/03/31 09:18:20;;;;;;;12.83;2.47;;;6.50;99.90;;;;;;5079545;28;20278;-92
2023/03/31 09:20:58;;;;;;;9.27;2.57;;;6.50;99.90;;;;;;5079391;28;20211;-91
2023/03/31 09:23:33;;;;;;;6.73;2.17;;;6.50;99.90;;;;;;5075318;28;20208;-90
2023/03/31 09:26:13;;;;;;;9.33;2.37;;;6.50;99.90;;;;;;5078003;28;20188;-90
2023/03/31 09:28:45;;;;;;;12.00;2.60;;;6.50;99.90;;;;;;5073093;28;20196;-90
2023/03/31 09:31:19;;;;;;;6.67;2.23;;;6.40;99.90;;;;;;5070242;28;20207;-89
2023/03/31 09:33:55;;;;;;;9.27;2.50;;;6.40;99.90;;;;;;5067120;28;20250;-92
2023/03/31 09:36:26;;;;;;;7.23;2.10;;;6.40;99.90;;;;;;5080963;28;20643;-92
2023/03/31 09:38:58;;;;;;;10.53;1.90;;;6.40;99.90;;;;;;5058077;28;20209;-91
2023/03/31 09:41:31;;;;;;;8.87;2.30;;;6.40;99.90;;;;;;5105973;28;20200;-90
2023/03/31 09:44:04;;;;;;;7.43;2.40;;;6.40;99.90;;;;;;5075621;28;20203;-91
2023/03/31 09:46:39;;;;;;;5.83;1.97;;;6.40;99.90;;;;;;5076064;28;20286;-90
2023/03/31 09:49:15;;;;;;;5.33;2.00;;;6.40;99.90;;;;;;5074775;28;20203;-91
2023/03/31 09:51:51;;;;;;;8.30;2.50;;;6.40;99.90;;;;;;5060105;28;20259;-90
2023/03/31 09:54:28;;;;;;;6.47;1.73;;;6.40;99.90;;;;;;5095269;28;20226;-89
2023/03/31 09:57:01;;;;;;;6.53;1.90;;;6.40;99.90;;;;;;5096014;28;20310;-90
2023/03/31 09:59:34;;;;;;;5.77;1.60;;;6.40;99.90;;;;;;5094784;28;20214;-90
2023/03/31 10:02:39;;;;;;;5.67;2.37;;;6.40;99.90;;;;;;5078118;28;20243;-91
2023/03/31 10:05:24;;;;;;;5.00;1.97;;;6.30;99.90;;;;;;5056074;28;20211;-91
2023/03/31 10:08:13;;;;;;;7.93;2.30;;;6.30;99.90;;;;;;5056527;28;20208;-90
2023/03/31 10:10:49;;;;;;;5.90;1.50;;;6.20;99.90;;;;;;5067518;28;20207;-92
2023/03/31 10:13:25;;;;;;;3.33;1.40;;;6.20;99.90;;;;;;5076077;28;20301;-92
2023/03/31 10:16:05;;;;;;;5.63;1.63;;;6.20;99.90;;;;;;5075430;28;20210;-91
2023/03/31 10:18:38;;;;;;;4.27;1.63;;;6.10;99.90;;;;;;5074461;28;20628;-90
2023/03/31 10:21:21;;;;;;;5.60;1.77;;;6.10;99.90;;;;;;5062792;28;20218;-92
2023/03/31 10:23:53;;;;;;;7.40;1.63;;;6.10;99.90;;;;;;5055142;28;20292;-91
2023/03/31 10:26:27;;;;;;;3.70;1.43;;;6.20;99.90;;;;;;5055009;28;20211;-91
2023/03/31 10:29:01;;;;;;;8.03;1.87;;;6.10;99.90;;;;;;5053537;28;20218;-91
2023/03/31 10:31:37;;;;;;;5.47;1.50;;;6.10;99.90;;;;;;5055290;28;20212;-90
2023/03/31 10:34:15;;;;;;;9.03;1.87;;;6.10;99.90;;;;;;5054590;28;20270;-90
2023/03/31 10:36:50;;;;;;;6.37;1.93;;;6.20;99.90;;;;;;5068770;28;20294;-90
2023/03/31 10:39:29;;;;;;;6.57;1.53;;;6.20;99.90;;;;;;5083416;28;20635;-91
2023/03/31 10:42:02;;;;;;;6.23;1.67;;;6.10;99.90;;;;;;5074058;28;20242;-92
2023/03/31 10:44:38;;;;;;;3.90;1.57;;;6.00;99.90;;;;;;5074946;28;20234;-92
2023/03/31 10:47:20;;;;;;;7.57;2.27;;;5.80;99.90;;;;;;5055199;28;20271;-91
2023/03/31 10:49:58;;;;;;;6.50;2.40;;;5.80;99.90;;;;;;5055204;28;20236;-91
2023/03/31 10:52:29;;;;;;;6.67;2.27;;;5.60;99.90;;;;;;5091436;28;20211;-91
2023/03/31 10:55:01;;;;;;;3.60;1.97;;;5.60;99.90;;;;;;5092471;28;20247;-91
2023/03/31 10:57:44;;;;;;;5.67;1.90;;;5.60;99.90;;;;;;5074094;28;20648;-89
2023/03/31 11:00:29;;;;;;;5.93;2.37;;;5.60;99.90;;;;;;5074573;28;20311;-90
2023/03/31 11:03:24;;;;;;;4.13;1.70;;;5.60;99.90;;;;;;5071958;28;20203;-91
2023/03/31 11:05:58;;;;;;;7.70;1.87;;;5.60;99.90;;;;;;5074595;28;20208;-90
2023/03/31 11:08:45;;;;;;;3.73;1.67;;;5.60;99.90;;;;;;5073932;28;20214;-91
2023/03/31 11:11:33;;;;;;;5.17;2.13;;;5.60;99.90;;;;;;5074188;28;20204;-90
2023/03/31 11:14:14;;;;;;;3.33;1.77;;;5.60;99.90;;;;;;5074081;28;20235;-89
2023/03/31 11:16:57;;;;;;;7.27;1.87;;;5.60;99.90;;;;;;5076427;28;20238;-90
2023/03/31 11:19:40;;;;;;;6.20;2.10;;;5.50;99.90;;;;;;5089163;28;20638;-92
2023/03/31 11:22:17;;;;;;;9.40;2.83;;;5.50;99.90;;;;;;5077644;28;20199;-91
2023/03/31 11:25:21;;;;;;;5.30;2.10;;;5.50;99.90;;;;;;5078755;28;20257;-91
2023/03/31 11:28:09;;;;;;;9.30;2.20;;;5.50;99.90;;;;;;5076593;28;20274;-90
2023/03/31 11:30:47;;;;;;;8.90;2.53;;;5.50;99.90;;;;;;5084883;28;20243;-90
2023/03/31 11:33:42;;;;;;;8.70;2.17;;;5.50;99.90;;;;;;5080029;28;20191;-90
2023/03/31 11:36:25;;;;;;;7.40;2.40;;;5.50;99.90;;;;;;5100135;28;20226;-90
2023/03/31 11:39:11;;;;;;;7.03;2.60;;;5.50;99.90;;;;;;5093789;28;20267;-91
2023/03/31 11:41:48;;;;;;;7.20;2.53;;;5.40;99.90;;;;;;5058249;28;20298;-92
2023/03/31 11:44:22;;;;;;;7.77;2.13;;;5.40;99.90;;;;;;5058418;28;20247;-91
2023/03/31 11:46:58;;;;;;;6.90;2.70;;;5.50;99.90;;;;;;5068235;28;20629;-90
2023/03/31 11:49:37;;;;;;;8.20;2.63;;;5.50;99.90;;;;;;5084367;28;20229;-91
2023/03/31 11:52:14;;;;;;;6.47;2.43;;;5.40;99.90;;;;;;5057787;28;20307;-90
2023/03/31 11:54:54;;;;;;;7.23;2.97;;;5.40;99.90;;;;;;5057834;28;20271;-90
2023/03/31 11:57:31;;;;;;;8.07;2.47;;;5.40;99.90;;;;;;5070290;28;20208;-91
2023/03/31 12:00:09;;;;;;;7.47;2.63;;;5.40;99.90;;;;;;5077559;28;20211;-90
2023/03/31 12:02:47;;;;;;;6.43;3.00;;;5.40;99.90;;;;;;5078375;28;20246;-90
2023/03/31 12:05:23;;;;;;;7.63;2.80;;;5.30;99.90;;;;;;5078484;28;20211;-90
2023/03/31 12:08:02;;;;;;;7.47;2.27;;;5.40;99.90;;;;;;5090937;28;20676;-89
2023/03/31 12:10:37;;;;;;;8.37;2.70;;;5.40;99.90;;;;;;5062673;28;20247;-89
2023/03/31 12:13:35;;;;;;;5.13;2.67;;;5.40;99.90;;;;;;5087490;28;20226;-89
2023/03/31 12:16:11;;;;;;;8.73;2.80;;;5.30;99.90;;;;;;5098493;28;20227;-90
2023/03/31 12:18:47;;;;;;;8.90;2.67;;;5.30;99.90;;;;;;5097501;28;20199;-89
2023/03/31 12:21:21;;;;;;;7.93;2.97;;;5.30;99.90;;;;;;5092510;28;20589;-91
2023/03/31 12:23:53;;;;;;;11.50;2.27;;;5.30;99.90;;;;;;5081000;28;20203;-90
2023/03/31 12:26:38;;;;;;;9.50;2.97;;;5.40;99.90;;;;;;5063550;28;20236;-90
2023/03/31 12:29:20;;;;;;;6.30;2.23;;;5.40;99.90;;;;;;5062662;28;20235;-91
2023/03/31 12:31:54;;;;;;;8.87;2.77;;;5.40;99.90;;;;;;5060769;28;20215;-90
2023/03/31 12:34:29;;;;;;;8.97;2.53;;;5.50;99.90;;;;;;5076517;28;20192;-90
2023/03/31 12:37:37;;;;;;;7.37;2.20;;;5.50;99.90;;;;;;5092249;28;20202;-91
2023/03/31 12:40:19;;;;;;;7.40;2.10;;;5.50;99.90;;;;;;5034951;28;20652;-90
2023/03/31 12:43:07;;;;;;;8.67;2.30;;;5.50;99.90;;;;;;5063138;28;20203;-91
2023/03/31 12:45:42;;;;;;;7.67;2.33;;;5.50;99.90;;;;;;5084607;28;20195;-91
2023/03/31 12:48:45;;;;;;;6.53;2.40;;;5.50;99.90;;;;;;5096144;28;20207;-91
2023/03/31 12:51:27;;;;;;;8.60;2.43;;;5.50;99.90;;;;;;5087451;28;20294;-92
2023/03/31 12:54:15;;;;;;;10.90;2.43;;;5.40;99.90;;;;;;5080244;28;20270;-93
2023/03/31 12:57:15;;;;;;;6.77;2.47;;;5.40;99.90;;;;;;5076811;28;20597;-92
2023/03/31 12:59:47;;;;;;;6.67;2.13;;;5.30;99.90;;;;;;5075997;28;20207;-90
2023/03/31 13:02:27;;;;;;;7.00;2.17;;;5.40;99.90;;;;;;5075286;28;20203;-89
2023/03/31 13:04:59;;;;;;;9.80;2.40;;;5.40;99.90;;;;;;5074800;28;20214;-90
2023/03/31 13:07:43;;;;;;;6.53;2.57;;;5.40;99.90;;;;;;5090643;28;20291;-90
2023/03/31 13:10:32;;;;;;;11.57;2.57;;;5.40;99.90;;;;;;5056115;28;20263;-89
2023/03/31 13:13:05;;;;;;;9.00;2.50;;;5.40;99.90;;;;;;5055616;28;20351;-88
2023/03/31 13:15:37;;;;;;;10.27;2.93;;;5.40;99.90;;;;;;5074324;28;20265;-92
2023/03/31 13:18:19;;;;;;;5.83;2.40;;;5.40;99.90;;;;;;5077087;28;20200;-88
2023/03/31 13:21:00;;;;;;;5.63;2.27;;;5.40;99.90;;;;;;5069661;28;20246;-89
2023/03/31 13:23:36;;;;;;;11.40;2.87;;;5.40;99.90;;;;;;5057460;28;20218;-90
2023/03/31 13:26:39;;;;;;;5.50;2.37;;;5.40;99.90;;;;;;5071205;28;20627;-89
2023/03/31 13:29:25;;;;;;;6.50;2.40;;;5.50;99.90;;;;;;5072739;28;20222;-89
2023/03/31 13:32:21;;;;;;;8.10;2.07;;;5.50;99.90;;;;;;5085639;28;20215;-89
2023/03/31 13:34:58;;;;;;;4.23;2.03;;;5.50;99.90;;;;;;5106678;28;20230;-91
2023/03/31 13:37:46;;;;;;;7.20;2.10;;;5.50;99.90;;;;;;5077873;28;20232;-89
2023/03/31 13:40:47;;;;;;;6.53;2.10;;;5.50;99.90;;;;;;5079256;28;20200;-90
2023/03/31 13:43:49;;;;;;;8.17;2.20;;;5.50;99.90;;;;;;5075174;28;20298;-90
2023/03/31 13:46:51;;;;;;;6.17;1.93;;;5.50;99.90;;;;;;5076426;28;20245;-90
2023/03/31 13:50:01;;;;;;;6.97;2.40;;;5.60;99.90;;;;;;5091205;28;20302;-91